createdAt,value
2022-07-29T00:02:26.192Z,98127.81
2022-07-29T00:04:52.932Z,98127.81
2022-07-29T00:07:19.735Z,98123.28
2022-07-29T00:09:52.110Z,98127.00
2022-07-29T00:12:25.114Z,98115.53
2022-07-29T00:14:56.284Z,98113.97
2022-07-29T00:17:26.067Z,98110.41
2022-07-29T00:19:58.569Z,98105.41
2022-07-29T00:22:25.073Z,98102.91
2022-07-29T00:24:51.632Z,98096.09
2022-07-29T00:27:19.073Z,98090.72
2022-07-29T00:29:45.816Z,98082.97
2022-07-29T00:32:12.361Z,98085.03
2022-07-29T00:34:57.562Z,98085.16
2022-07-29T00:37:24.168Z,98087.03
2022-07-29T00:39:50.755Z,98083.94
2022-07-29T00:42:18.303Z,98081.34
2022-07-29T00:44:44.824Z,98072.63
2022-07-29T00:47:12.770Z,98076.91
2022-07-29T00:49:41.078Z,98084.66
2022-07-29T00:52:09.051Z,98082.28
2022-07-29T00:54:37.412Z,98085.50
2022-07-29T00:57:10.932Z,98084.19
2022-07-29T00:59:39.552Z,98087.53
2022-07-29T01:02:06.137Z,98084.19
2022-07-29T01:04:33.277Z,98079.78
2022-07-29T01:07:02.444Z,98076.22
2022-07-29T01:09:34.461Z,98069.78
2022-07-29T01:12:17.113Z,98068.22
2022-07-29T01:14:44.586Z,98064.03
2022-07-29T01:17:29.687Z,98066.53
2022-07-29T01:20:03.935Z,98072.63
2022-07-29T01:22:42.566Z,98074.78
2022-07-29T01:25:33.874Z,98079.78
2022-07-29T01:28:33.712Z,98085.03
2022-07-29T01:31:01.438Z,98080.84
2022-07-29T01:33:50.414Z,98080.72
2022-07-29T01:36:34.648Z,98073.94
2022-07-29T01:39:08.600Z,98077.50
2022-07-29T01:41:38.272Z,98068.91
2022-07-29T01:44:21.138Z,98073.44
2022-07-29T01:46:55.081Z,98076.88
2022-07-29T01:49:28.097Z,98077.97
2022-07-29T01:52:01.555Z,98083.44
2022-07-29T01:54:36.711Z,98088.09
2022-07-29T01:57:07.039Z,98093.94
2022-07-29T01:59:36.383Z,98096.56
2022-07-29T02:02:03.379Z,98095.84
2022-07-29T02:04:33.430Z,98090.13
2022-07-29T02:07:04.930Z,98078.56
2022-07-29T02:09:34.281Z,98081.41
2022-07-29T02:12:02.976Z,98076.28
2022-07-29T02:14:34.305Z,98084.84
2022-07-29T02:17:02.676Z,98085.31
2022-07-29T02:19:32.739Z,98088.16
2022-07-29T02:22:01.023Z,98090.09
2022-07-29T02:24:29.549Z,98086.13
2022-07-29T02:26:58.845Z,98094.69
2022-07-29T02:29:29.281Z,98099.69
2022-07-29T02:31:59.414Z,98085.22
2022-07-29T02:34:27.751Z,98095.59
2022-07-29T02:36:56.315Z,98089.38
2022-07-29T02:39:24.265Z,98091.00
2022-07-29T02:41:56.589Z,98093.22
2022-07-29T02:44:27.333Z,98086.41
2022-07-29T02:47:16.360Z,98084.63
2022-07-29T02:50:05.336Z,98087.53
2022-07-29T02:52:46.151Z,98094.25
2022-07-29T02:55:31.506Z,98083.25
2022-07-29T02:58:15.327Z,98084.53
2022-07-29T03:00:42.722Z,98082.44
2022-07-29T03:03:14.129Z,98089.97
2022-07-29T03:05:41.464Z,98089.56
2022-07-29T03:08:11.517Z,98090.00
2022-07-29T03:10:41.342Z,98094.00
2022-07-29T03:13:08.840Z,98091.59
2022-07-29T03:15:36.703Z,98089.41
2022-07-29T03:18:03.773Z,98086.78
2022-07-29T03:20:30.595Z,98088.03
2022-07-29T03:22:57.116Z,98093.38
2022-07-29T03:25:23.672Z,98092.75
2022-07-29T03:27:51.052Z,98090.44
2022-07-29T03:30:18.286Z,98088.75
2022-07-29T03:32:48.482Z,98099.31
2022-07-29T03:35:17.467Z,98094.50
2022-07-29T03:37:44.932Z,98091.47
2022-07-29T03:40:15.350Z,98090.13
2022-07-29T03:42:43.460Z,98088.56
2022-07-29T03:45:16.378Z,98087.28
2022-07-29T03:47:51.017Z,98080.38
2022-07-29T03:50:21.140Z,98077.44
2022-07-29T03:52:50.054Z,98076.59
2022-07-29T03:55:16.919Z,98082.84
2022-07-29T03:57:46.164Z,98080.75
2022-07-29T04:00:13.240Z,98080.63
2022-07-29T04:02:40.317Z,98079.88
2022-07-29T04:05:13.450Z,98082.81
2022-07-29T04:07:40.473Z,98084.38
2022-07-29T04:10:10.374Z,98089.72
2022-07-29T04:12:36.875Z,98083.63
2022-07-29T04:15:07.140Z,98076.66
2022-07-29T04:17:33.639Z,98089.50
2022-07-29T04:20:00.208Z,98087.19
2022-07-29T04:22:26.760Z,98097.84
2022-07-29T04:24:54.031Z,98092.16
2022-07-29T04:27:20.514Z,98091.25
2022-07-29T04:29:57.102Z,98091.53
2022-07-29T04:32:24.779Z,98095.91
2022-07-29T04:34:51.215Z,98096.47
2022-07-29T04:37:18.693Z,98098.00
2022-07-29T04:39:45.121Z,98100.63
2022-07-29T04:42:11.593Z,98103.88
2022-07-29T04:44:39.825Z,98091.56
2022-07-29T04:47:09.998Z,98094.72
2022-07-29T04:49:39.151Z,98096.59
2022-07-29T04:52:07.281Z,98096.19
2022-07-29T04:57:00.964Z,98100.69
2022-07-29T04:59:28.003Z,98104.44
2022-07-29T05:01:54.602Z,98101.06
2022-07-29T05:04:21.251Z,98100.50
2022-07-29T05:06:47.969Z,98111.09
2022-07-29T05:09:14.486Z,98116.97
2022-07-29T05:11:40.967Z,98106.88
2022-07-29T05:14:07.425Z,98113.81
2022-07-29T05:16:34.487Z,98110.34
2022-07-29T05:19:01.055Z,98114.81
2022-07-29T05:21:27.546Z,98115.22
2022-07-29T05:23:54.048Z,98110.44
2022-07-29T05:26:20.530Z,98112.69
2022-07-29T05:28:47.066Z,98116.13
2022-07-29T05:31:15.621Z,98113.28
2022-07-29T05:33:42.814Z,98114.38
2022-07-29T05:36:09.367Z,98117.53
2022-07-29T05:38:36.609Z,98111.44
2022-07-29T05:41:03.466Z,98119.53
2022-07-29T05:43:30.224Z,98115.06
2022-07-29T05:45:57.673Z,98117.72
2022-07-29T05:48:24.210Z,98109.53
2022-07-29T05:50:50.790Z,98115.69
2022-07-29T05:53:18.853Z,98113.38
2022-07-29T05:55:46.805Z,98117.78
2022-07-29T05:58:13.420Z,98121.38
2022-07-29T06:00:39.925Z,98128.13
2022-07-29T06:03:06.492Z,98124.06
2022-07-29T06:05:33.070Z,98131.06
2022-07-29T06:07:59.595Z,98130.34
2022-07-29T06:10:28.943Z,98131.75
2022-07-29T06:12:55.675Z,98122.69
2022-07-29T06:15:22.216Z,98131.34
2022-07-29T06:18:00.126Z,98120.97
2022-07-29T06:20:32.091Z,98128.19
2022-07-29T06:22:59.180Z,98130.78
2022-07-29T06:25:25.787Z,98129.56
2022-07-29T06:27:52.241Z,98133.25
2022-07-29T06:30:18.750Z,98125.81
2022-07-29T06:32:45.250Z,98139.75
2022-07-29T06:35:41.703Z,98128.00
2022-07-29T06:37:59.814Z,98135.28
2022-07-29T06:40:45.635Z,98136.06
2022-07-29T06:43:12.290Z,98136.88
2022-07-29T06:45:42.207Z,98140.16
2022-07-29T06:48:09.419Z,98140.38
2022-07-29T06:50:35.913Z,98148.50
2022-07-29T06:53:02.385Z,98140.38
2022-07-29T06:55:28.889Z,98146.06
2022-07-29T06:57:55.358Z,98142.69
2022-07-29T07:00:21.883Z,98149.88
2022-07-29T07:02:48.893Z,98153.44
2022-07-29T07:05:15.489Z,98156.97
2022-07-29T07:07:41.988Z,98159.00
2022-07-29T07:10:09.209Z,98153.44
2022-07-29T07:12:35.585Z,98159.19
2022-07-29T07:15:01.960Z,98152.16
2022-07-29T07:17:28.384Z,98153.84
2022-07-29T07:19:54.745Z,98154.56
2022-07-29T07:22:21.321Z,98152.41
2022-07-29T07:24:47.760Z,98148.66
2022-07-29T07:27:14.279Z,98150.00
2022-07-29T07:29:42.483Z,98146.59
2022-07-29T07:32:11.052Z,98147.28
2022-07-29T07:34:38.894Z,98150.53
2022-07-29T07:37:06.544Z,98149.50
2022-07-29T07:39:33.093Z,98146.66
2022-07-29T07:41:59.920Z,98135.75
2022-07-29T07:44:26.559Z,98144.97
2022-07-29T07:46:53.270Z,98135.28
2022-07-29T07:49:21.323Z,98133.31
2022-07-29T07:51:50.386Z,98137.00
2022-07-29T07:54:17.922Z,98128.78
2022-07-29T07:56:45.046Z,98124.22
2022-07-29T07:59:11.577Z,98123.06
2022-07-29T08:01:49.960Z,98119.59
2022-07-29T08:04:28.020Z,98126.13
2022-07-29T08:06:56.636Z,98122.25
2022-07-29T08:09:29.766Z,98122.50
2022-07-29T08:11:58.662Z,98126.09
2022-07-29T08:14:25.394Z,98122.00
2022-07-29T08:16:53.680Z,98119.16
2022-07-29T08:19:20.405Z,98122.28
2022-07-29T08:21:46.983Z,98122.97
2022-07-29T08:24:32.125Z,98118.50
2022-07-29T08:26:58.611Z,98118.66
2022-07-29T08:29:25.115Z,98112.81
2022-07-29T08:31:51.894Z,98120.66
2022-07-29T08:34:18.723Z,98130.38
2022-07-29T08:36:52.774Z,98117.84
2022-07-29T08:39:19.317Z,98114.25
2022-07-29T08:41:48.760Z,98116.69
2022-07-29T08:44:30.554Z,98120.16
2022-07-29T08:46:57.840Z,98122.13
2022-07-29T08:49:24.412Z,98117.75
2022-07-29T08:51:52.173Z,98125.59
2022-07-29T08:54:19.434Z,98116.72
2022-07-29T08:56:48.978Z,98113.22
2022-07-29T08:59:16.093Z,98118.78
2022-07-29T09:01:45.247Z,98121.81
2022-07-29T09:04:13.115Z,98115.06
2022-07-29T09:06:44.606Z,98122.81
2022-07-29T09:09:11.362Z,98119.31
2022-07-29T09:11:38.314Z,98123.41
2022-07-29T09:14:04.783Z,98120.38
2022-07-29T09:16:55.461Z,98118.16
2022-07-29T09:19:27.512Z,98116.16
2022-07-29T09:22:03.555Z,98112.81
2022-07-29T09:24:44.205Z,98100.91
2022-07-29T09:27:27.197Z,98106.59
2022-07-29T09:30:01.989Z,98110.41
2022-07-29T09:32:29.250Z,98104.19
2022-07-29T09:35:15.191Z,98104.47
2022-07-29T09:37:41.783Z,98106.13
2022-07-29T09:40:31.635Z,98089.53
2022-07-29T09:42:58.329Z,98084.69
2022-07-29T09:45:29.478Z,98087.38
2022-07-29T09:47:58.409Z,98085.03
2022-07-29T09:50:36.383Z,98089.19
2022-07-29T09:53:02.867Z,98082.56
2022-07-29T09:55:29.405Z,98096.81
2022-07-29T09:58:16.407Z,98093.06
2022-07-29T10:00:43.895Z,98092.84
2022-07-29T10:03:10.590Z,98090.38
2022-07-29T10:05:40.462Z,98098.69
2022-07-29T10:08:07.014Z,98095.16
2022-07-29T10:10:36.008Z,98091.34
2022-07-29T10:13:08.918Z,98093.31
2022-07-29T10:15:41.894Z,98084.63
2022-07-29T10:18:09.938Z,98087.81
2022-07-29T10:20:37.284Z,98086.56
2022-07-29T10:23:04.090Z,98079.88
2022-07-29T10:25:31.195Z,98080.94
2022-07-29T10:27:58.307Z,98083.81
2022-07-29T10:30:28.909Z,98078.63
2022-07-29T10:33:38.600Z,98073.81
2022-07-29T10:36:34.675Z,98069.00
2022-07-29T10:39:44.784Z,98073.28
2022-07-29T10:42:20.504Z,98062.63
2022-07-29T10:45:01.550Z,98061.13
2022-07-29T10:47:28.535Z,98067.84
2022-07-29T10:50:01.390Z,98055.63
2022-07-29T10:52:50.047Z,98054.06
2022-07-29T10:55:43.101Z,98048.59
2022-07-29T10:58:17.802Z,98050.22
2022-07-29T11:00:45.929Z,98053.72
2022-07-29T11:03:41.572Z,98050.22
2022-07-29T11:06:16.608Z,98045.44
2022-07-29T11:08:44.690Z,98044.06
2022-07-29T11:11:32.215Z,98044.53
2022-07-29T11:13:58.981Z,98049.84
2022-07-29T11:16:26.617Z,98048.78
2022-07-29T11:19:13.417Z,98041.81
2022-07-29T11:21:55.512Z,98046.41
2022-07-29T11:24:32.418Z,98044.66
2022-07-29T11:27:19.858Z,98045.69
2022-07-29T11:29:54.009Z,98042.81
2022-07-29T11:32:23.381Z,98052.38
2022-07-29T11:35:37.481Z,98043.53
2022-07-29T11:38:28.381Z,98043.72
2022-07-29T11:41:25.113Z,98047.88
2022-07-29T11:43:59.841Z,98042.94
2022-07-29T11:46:47.491Z,98045.41
2022-07-29T11:49:15.317Z,98038.41
2022-07-29T11:51:48.351Z,98039.63
2022-07-29T11:54:27.475Z,98034.25
2022-07-29T11:56:54.937Z,98025.47
2022-07-29T11:59:22.845Z,98016.13
2022-07-29T12:02:18.422Z,98016.72
2022-07-29T12:04:55.661Z,98013.03
2022-07-29T12:07:34.631Z,98006.19
2022-07-29T12:10:03.060Z,98009.34
2022-07-29T12:12:29.525Z,98010.38
2022-07-29T12:14:56.323Z,98014.53
2022-07-29T12:17:36.026Z,98004.81
2022-07-29T12:20:05.247Z,97996.47
2022-07-29T12:22:41.849Z,97999.16
2022-07-29T12:28:07.392Z,97982.13
2022-07-29T12:30:40.627Z,97984.78
2022-07-29T12:33:30.486Z,97983.63
2022-07-29T12:36:06.955Z,97980.31
2022-07-29T12:38:41.214Z,97984.94
2022-07-29T12:41:07.965Z,97971.28
2022-07-29T12:43:34.540Z,97972.44
2022-07-29T12:46:13.634Z,97969.59
2022-07-29T12:48:42.452Z,97972.91
2022-07-29T12:51:11.032Z,97976.28
2022-07-29T12:53:37.936Z,97975.94
2022-07-29T12:56:20.710Z,97980.38
2022-07-29T12:58:52.709Z,97973.31
2022-07-29T13:01:21.051Z,97967.53
2022-07-29T13:04:01.071Z,97965.22
2022-07-29T13:06:30.586Z,97965.84
2022-07-29T13:09:14.497Z,97964.63
2022-07-29T13:11:48.417Z,97954.91
2022-07-29T13:14:35.848Z,97952.72
2022-07-29T13:17:02.282Z,97951.41
2022-07-29T13:19:42.192Z,97949.25
2022-07-29T13:22:14.319Z,97953.41
2022-07-29T13:24:58.371Z,97944.09
2022-07-29T13:27:27.080Z,97946.06
2022-07-29T13:29:57.419Z,97940.13
2022-07-29T13:32:28.788Z,97940.03
2022-07-29T13:35:01.208Z,97947.50
2022-07-29T13:37:33.822Z,97944.63
2022-07-29T13:40:00.855Z,97944.25
2022-07-29T13:42:27.515Z,97942.44
2022-07-29T13:44:53.988Z,97935.81
2022-07-29T13:47:21.692Z,97935.97
2022-07-29T13:49:48.566Z,97945.53
2022-07-29T13:52:16.526Z,97939.63
2022-07-29T13:54:44.084Z,97946.16
2022-07-29T13:57:11.987Z,97965.16
2022-07-29T13:59:43.016Z,97965.09
2022-07-29T14:02:11.261Z,97961.56
2022-07-29T14:04:39.714Z,97955.38
2022-07-29T14:07:06.536Z,97963.03
2022-07-29T14:09:37.443Z,97969.50
2022-07-29T14:12:08.947Z,97999.88
2022-07-29T14:14:37.298Z,98003.41
2022-07-29T14:17:04.351Z,98013.78
2022-07-29T14:19:33.018Z,98024.06
2022-07-29T14:22:00.080Z,98025.34
2022-07-29T14:24:26.924Z,98036.25
2022-07-29T14:26:53.463Z,98039.84
2022-07-29T14:29:20.027Z,98039.47
2022-07-29T14:31:46.653Z,98030.47
2022-07-29T14:34:16.366Z,98054.00
2022-07-29T14:36:43.146Z,98068.84
2022-07-29T14:39:09.782Z,98081.34
2022-07-29T14:41:36.354Z,98107.88
2022-07-29T14:44:03.013Z,98100.59
2022-07-29T14:46:29.868Z,98104.34
2022-07-29T14:48:56.417Z,98104.66
2022-07-29T14:51:22.917Z,98108.84
2022-07-29T14:53:49.373Z,98098.94
2022-07-29T14:56:36.103Z,98109.72
2022-07-29T14:59:02.382Z,98113.84
2022-07-29T15:01:29.006Z,98112.13
2022-07-29T15:03:59.518Z,98121.75
2022-07-29T15:06:26.929Z,98125.53
2022-07-29T15:08:53.527Z,98127.50
2022-07-29T15:11:20.010Z,98121.91
2022-07-29T15:13:46.517Z,98117.91
2022-07-29T15:16:13.153Z,98123.25
2022-07-29T15:18:39.638Z,98126.59
2022-07-29T15:21:07.890Z,98124.72
2022-07-29T15:23:37.201Z,98139.97
2022-07-29T15:26:04.952Z,98138.72
2022-07-29T15:28:31.558Z,98131.38
2022-07-29T15:30:58.164Z,98124.78
2022-07-29T15:33:24.791Z,98118.84
2022-07-29T15:35:51.310Z,98121.34
2022-07-29T15:38:18.270Z,98126.16
2022-07-29T15:40:45.408Z,98130.56
2022-07-29T15:43:12.563Z,98144.06
2022-07-29T15:45:41.316Z,98160.47
2022-07-29T15:48:08.935Z,98163.41
2022-07-29T15:50:35.762Z,98161.00
2022-07-29T15:53:02.615Z,98160.81
2022-07-29T15:55:29.196Z,98161.72
2022-07-29T15:58:00.292Z,98175.13
2022-07-29T16:00:27.185Z,98171.88
2022-07-29T16:02:53.682Z,98177.13
2022-07-29T16:05:20.297Z,98178.97
2022-07-29T16:07:46.748Z,98179.41
2022-07-29T16:10:13.290Z,98184.13
2022-07-29T16:12:39.792Z,98175.53
2022-07-29T16:15:10.007Z,98181.09
2022-07-29T16:17:37.871Z,98174.94
2022-07-29T16:20:06.122Z,98180.16
2022-07-29T16:22:32.763Z,98176.78
2022-07-29T16:24:59.313Z,98180.47
2022-07-29T16:27:34.299Z,98172.94
2022-07-29T16:30:05.268Z,98174.41
2022-07-29T16:32:31.788Z,98166.94
2022-07-29T16:34:58.646Z,98157.00
2022-07-29T16:37:25.220Z,98155.66
2022-07-29T16:39:55.317Z,98158.16
2022-07-29T16:42:44.286Z,98158.34
2022-07-29T16:45:08.967Z,98164.31
2022-07-29T16:47:36.111Z,98161.50
2022-07-29T16:50:02.790Z,98161.28
2022-07-29T16:52:29.428Z,98169.69
2022-07-29T16:54:56.013Z,98159.13
2022-07-29T16:57:22.510Z,98166.09
2022-07-29T16:59:50.993Z,98167.56
2022-07-29T17:02:18.003Z,98174.69
2022-07-29T17:04:44.525Z,98174.59
2022-07-29T17:07:11.030Z,98181.09
2022-07-29T17:09:37.538Z,98177.31
2022-07-29T17:12:04.475Z,98180.53
2022-07-29T17:14:31.194Z,98185.56
2022-07-29T17:17:01.064Z,98184.59
2022-07-29T17:19:35.303Z,98182.19
2022-07-29T17:22:17.116Z,98178.53
2022-07-29T17:24:46.116Z,98177.50
2022-07-29T17:27:12.752Z,98178.44
2022-07-29T17:29:39.411Z,98178.25
2022-07-29T17:32:07.564Z,98183.59
2022-07-29T17:34:38.765Z,98175.66
2022-07-29T17:37:07.860Z,98182.00
2022-07-29T17:39:35.617Z,98181.38
2022-07-29T17:42:03.391Z,98178.25
2022-07-29T17:44:30.117Z,98167.44
2022-07-29T17:46:56.969Z,98166.22
2022-07-29T17:49:23.899Z,98166.72
2022-07-29T17:51:50.388Z,98168.19
2022-07-29T17:54:16.828Z,98170.72
2022-07-29T17:56:43.302Z,98177.19
2022-07-29T17:59:10.288Z,98177.72
2022-07-29T18:01:38.104Z,98183.59
2022-07-29T18:04:04.780Z,98188.72
2022-07-29T18:06:31.270Z,98187.75
2022-07-29T18:08:57.789Z,98182.63
2022-07-29T18:11:24.306Z,98186.31
2022-07-29T18:13:50.943Z,98186.78
2022-07-29T18:16:18.154Z,98173.94
2022-07-29T18:18:45.545Z,98170.19
2022-07-29T18:21:12.097Z,98168.81
2022-07-29T18:23:38.541Z,98168.00
2022-07-29T18:26:05.207Z,98166.09
2022-07-29T18:28:32.745Z,98166.66
2022-07-29T18:31:00.225Z,98164.97
2022-07-29T18:33:26.771Z,98164.97
2022-07-29T18:36:10.598Z,98158.81
2022-07-29T18:38:39.278Z,98164.84
2022-07-29T18:41:05.741Z,98164.97
2022-07-29T18:43:32.199Z,98164.13
2022-07-29T18:45:58.665Z,98170.19
2022-07-29T18:48:25.168Z,98168.41
2022-07-29T18:50:51.650Z,98170.19
2022-07-29T18:53:18.235Z,98178.13
2022-07-29T18:55:44.919Z,98181.88
2022-07-29T18:58:11.390Z,98182.09
2022-07-29T19:00:38.044Z,98191.81
2022-07-29T19:03:04.651Z,98189.41
2022-07-29T19:05:31.482Z,98200.88
2022-07-29T19:07:57.945Z,98200.06
2022-07-29T19:10:24.483Z,98206.41
2022-07-29T19:12:51.021Z,98207.25
2022-07-29T19:15:20.299Z,98214.34
2022-07-29T19:17:47.966Z,98227.41
2022-07-29T19:20:14.661Z,98227.41
2022-07-29T19:22:41.169Z,98233.00
2022-07-29T19:25:08.258Z,98226.75
2022-07-29T19:27:34.701Z,98250.84
2022-07-29T19:30:03.316Z,98253.66
2022-07-29T19:32:29.891Z,98257.19
2022-07-29T19:35:15.159Z,98278.19
2022-07-29T19:37:41.609Z,98272.03
2022-07-29T19:40:10.014Z,98276.50
2022-07-29T19:42:36.502Z,98282.78
2022-07-29T19:45:03.377Z,98277.66
2022-07-29T19:47:29.942Z,98291.53
2022-07-29T19:49:56.404Z,98298.59
2022-07-29T19:52:22.830Z,98302.06
2022-07-29T19:54:49.342Z,98304.69
2022-07-29T19:57:15.804Z,98305.59
2022-07-29T19:59:45.820Z,98309.91
2022-07-29T20:02:13.279Z,98311.59
2022-07-29T20:04:40.264Z,98313.25
2022-07-29T20:07:07.059Z,98325.38
2022-07-29T20:09:33.648Z,98323.06
2022-07-29T20:12:00.347Z,98322.38
2022-07-29T20:14:27.061Z,98317.38
2022-07-29T20:16:56.449Z,98336.50
2022-07-29T20:19:22.931Z,98330.91
2022-07-29T20:21:51.360Z,98342.34
2022-07-29T20:24:18.764Z,98347.97
2022-07-29T20:26:45.206Z,98343.56
2022-07-29T20:29:11.681Z,98348.69
2022-07-29T20:31:38.237Z,98346.19
2022-07-29T20:34:04.914Z,98344.13
2022-07-29T20:36:31.689Z,98346.84
2022-07-29T20:39:00.010Z,98336.13
2022-07-29T20:41:26.661Z,98330.81
2022-07-29T20:43:53.112Z,98329.13
2022-07-29T20:46:19.662Z,98328.97
2022-07-29T20:48:47.131Z,98331.72
2022-07-29T20:51:14.628Z,98323.75
2022-07-29T20:53:41.591Z,98323.75
2022-07-29T20:56:08.528Z,98314.94
2022-07-29T20:58:36.212Z,98314.94
2022-07-29T21:01:03.145Z,98312.91
2022-07-29T21:03:29.762Z,98307.69
2022-07-29T21:05:56.469Z,98298.94
2022-07-29T21:08:23.044Z,98303.31
2022-07-29T21:10:49.567Z,98301.44
2022-07-29T21:13:16.616Z,98297.88
2022-07-29T21:15:46.213Z,98291.09
2022-07-29T21:18:30.519Z,98293.72
2022-07-29T21:21:00.434Z,98290.34
2022-07-29T21:23:27.638Z,98287.00
2022-07-29T21:25:54.919Z,98278.13
2022-07-29T21:28:27.405Z,98268.84
2022-07-29T21:30:58.813Z,98276.75
2022-07-29T21:33:28.482Z,98278.78
2022-07-29T21:38:41.853Z,98272.75
2022-07-29T21:41:08.449Z,98279.72
2022-07-29T21:43:34.915Z,98281.59
2022-07-29T21:46:01.437Z,98279.00
2022-07-29T21:48:28.588Z,98281.78
2022-07-29T21:50:55.585Z,98279.38
2022-07-29T21:53:22.296Z,98283.63
2022-07-29T21:55:50.705Z,98278.41
2022-07-29T21:58:18.151Z,98280.88
2022-07-29T22:00:44.822Z,98279.19
2022-07-29T22:03:11.509Z,98265.38
2022-07-29T22:05:38.117Z,98268.84
2022-07-29T22:08:04.921Z,98264.53
2022-07-29T22:10:31.392Z,98253.28
2022-07-29T22:12:59.143Z,98262.03
2022-07-29T22:15:26.243Z,98263.72
2022-07-29T22:17:53.103Z,98261.09
2022-07-29T22:20:20.500Z,98268.16
2022-07-29T22:22:48.135Z,98268.16
2022-07-29T22:25:14.626Z,98256.81
2022-07-29T22:27:41.376Z,98255.88
2022-07-29T22:30:08.947Z,98255.88
2022-07-29T22:32:36.946Z,98262.94
2022-07-29T22:35:03.651Z,98262.94
2022-07-29T22:37:30.215Z,98256.81
2022-07-29T22:39:56.851Z,98254.19
2022-07-29T22:42:23.684Z,98259.81
2022-07-29T22:44:50.354Z,98260.00
2022-07-29T22:47:16.935Z,98265.41
2022-07-29T22:49:43.396Z,98265.69
2022-07-29T22:52:09.977Z,98254.69
2022-07-29T22:54:38.243Z,98241.53
2022-07-29T22:57:05.629Z,98251.25
2022-07-29T23:01:59.321Z,98253.66
2022-07-29T23:04:25.809Z,98257.34
2022-07-29T23:06:52.325Z,98252.31
2022-07-29T23:09:18.949Z,98252.50
2022-07-29T23:11:46.107Z,98245.50
2022-07-29T23:14:12.807Z,98251.38
2022-07-29T23:16:39.334Z,98244.28
2022-07-29T23:19:05.854Z,98244.66
2022-07-29T23:21:32.534Z,98239.44
2022-07-29T23:23:59.059Z,98232.00
2022-07-29T23:26:25.588Z,98232.91
2022-07-29T23:28:52.072Z,98233.84
2022-07-29T23:31:18.939Z,98233.91
2022-07-29T23:33:45.442Z,98231.50
2022-07-29T23:36:11.911Z,98225.56
2022-07-29T23:38:41.417Z,98223.13
2022-07-29T23:41:09.721Z,98228.34
2022-07-29T23:43:39.320Z,98228.44
2022-07-29T23:46:06.374Z,98231.22
2022-07-29T23:48:33.566Z,98236.53
2022-07-29T23:51:01.187Z,98227.94
2022-07-29T23:53:28.523Z,98227.13
2022-07-29T23:55:56.142Z,98221.91
2022-07-29T23:58:22.875Z,98227.84
